Terminal Aerodrome Forecast
Issued by NWS

Home | Current Version | Previous Version | Text Only | Print | Product List | Glossary On
Versions: 1 2 3 4 5 6 7 8 9 10 11 12
000
FTUS45 KABQ 261134
TAFFMN
TAF
KFMN 261134Z 2612/2712 08006KT P6SM SCT200
     FM261700 13010KT P6SM BKN080
     FM270000 13012KT P6SM VCSH BKN050
     FM270600 10011KT P6SM BKN050=

USA.gov is the U.S. government's official web portal to all federal, state and local government web resources and services.